Thursday, November 27, 2014
08:18 UTC
  |  Log In   |  Register Free
Airport Search:

Northeast Philadelphia Airport
(KPNE)

FAA data valid effective November 13, 2014 - January 08, 2015 (unless otherwise noted).

 
 
 
 
 
 
 
 
 
 
 
 
 
 

Current Aviation Weather for Northeast Philadelphia Airport (KPNE)

The most recent METAR observation for KPNE was updated at: 0814
METAR Summary (Translated METAR)
KPNE
270754Z AUTO 30007KT 10SM SCT042 OVC050 03/M01 A2995 RMK AO2 SLP144 T00281011 TSNO
KVAY
270654Z AUTO 27005KT 10SM SCT041 02/M01 A2994 RMK AO2 SLP139 T00221006
(11.3 nm SE from KPNE)
KLOM
270755Z AUTO 28003KT 10SM OVC048 02/00 A2993 RMK AO1
(12.2 nm NW from KPNE)
TAF Summary (Translated TAF)
KPNE
270531Z 2706/2806 29006KT P6SM SCT045 BKN080 FM271400 30008KT P6SM BKN045 FM272200 30006KT P6SM SCT045
  Airport Weather Conditions for KPNE

 Current Weather at PNE
37° F
Overcast
Northwest winds at 8.1 mph
PNE NOAA Radar

Pressure: 29.95 in
Humidity: 76%
Wind: Northwest at 8.1 MPH (7 KT)
Dew Point: 30.0°F
Visibility: 10.00 mi


Airport Weather Forecast for KPNE

Translated METAR and TAF for KPNE
Translated METAR for KPNE (0813 UTC 27 November 2014)
found at http://aviationweather.gov/adds/metars/
 
METAR text: KPNE 270754Z AUTO 30007KT 10SM SCT042 OVC050 03/M01 A2995 RMK AO2 SLP144 T00281011 TSNO
Conditions at: KPNE (PHILADELPHIA/NE , PA, US) observed 0754 UTC 27 November 2014
Temperature: 2.8°C (37°F)
Dewpoint: -1.1°C (30°F) [RH = 75%]
Pressure (altimeter): 29.95 inches Hg (1014.3 mb)
[Sea-level pressure: 1014.4 mb]
Winds: from the WNW (300 degrees) at 8 MPH (7 knots; 3.6 m/s)
Visibility: 10 or more miles (16+ km)
Ceiling: 5000 feet AGL
Clouds: scattered clouds at 4200 feet AGL
overcast cloud deck at 5000 feet AGL
Weather: automated observation with no human augmentation;
there may or may not be significant weather present at this time
Translated TAF for KPNE
Forecast for: KPNE (PHILADELPHIA/NE , PA, US)
TAF Text: KPNE 270531Z 2706/2806 29006KT P6SM SCT045 BKN080
Forecast period: 0600 to 1400 UTC 27 November 2014
Forecast type: FROM: standard forecast or significant change
Winds: from the WNW (290 degrees) at 7 MPH (6 knots; 3.1 m/s)
Visibility: 6 or more miles (10+ km)
Ceiling: 8000 feet AGL
Clouds: scattered clouds at 4500 feet AGL
broken clouds at 8000 feet AGL
Weather: no significant weather forecast for this period
TAF Text: FM271400 30008KT P6SM BKN045
Forecast period: 1400 to 2200 UTC 27 November 2014
Forecast type: FROM: standard forecast or significant change
Winds: from the WNW (300 degrees) at 9 MPH (8 knots; 4.2 m/s)
Visibility: 6 or more miles (10+ km)
Ceiling: 4500 feet AGL
Clouds: broken clouds at 4500 feet AGL
Weather: no significant weather forecast for this period
TAF Text: FM272200 30006KT P6SM SCT045
Forecast period: 2200 UTC 27 November 2014 to 0600 UTC 28 November 2014
Forecast type: FROM: standard forecast or significant change
Winds: from the WNW (300 degrees) at 7 MPH (6 knots; 3.1 m/s)
Visibility: 6 or more miles (10+ km)
Clouds: scattered clouds at 4500 feet AGL
Weather: no significant weather forecast for this period

Find All Airport Services Find A Hotel Find A Rental Car Find A Golf Course Find A Restaurant $100 Hamburger



FBO's on the Field
FBO Company Facility Photos Services Transportation Aviation Fuel Prices: Prices include tax
Catering Weather Repair Courtesy Rental Type 100LL JetA JetA+ MOGAS 8087
 
Atlantic Aviation

This FBO has not yet been rated
FS:Independent
Last Updated: Nov-26
Login to update fuel prices
SS:
Contact Atlantic AviationMore FBO Information
 
North Philadelphia Jet Center

Currently rated 5 by 2 people
FS:Avfuel
Last Updated: Nov-26
Login to update fuel prices
SS:
Contact North Philadelphia Jet CenterMore FBO Information
 
Add another FBO Facility Photos Catering Weather Repair Courtesy Rental Type 100LL JetA JetA+ MOGAS 8087
Services Transportation Aviation Fuel Prices: Prices include tax


model-print
model-print
model-print
model-print